createdAt,value
2022-08-26T00:00:39.677Z,63.93
2022-08-26T00:05:44.537Z,63.88
2022-08-26T00:10:49.663Z,63.52
2022-08-26T00:15:54.685Z,63.88
2022-08-26T00:20:58.144Z,62.86
2022-08-26T00:26:02.499Z,62.85
2022-08-26T00:31:07.368Z,62.99
2022-08-26T00:36:19.977Z,63.18
2022-08-26T00:41:23.955Z,63.73
2022-08-26T00:46:32.781Z,63.55
2022-08-26T00:51:43.921Z,64.23
2022-08-26T00:56:53.029Z,62.73
2022-08-26T01:01:58.249Z,62.89
2022-08-26T01:07:02.211Z,64.19
2022-08-26T01:12:06.897Z,63.63
2022-08-26T01:17:12.010Z,63.84
2022-08-26T01:22:19.398Z,64.01
2022-08-26T01:27:27.467Z,64.42
2022-08-26T01:32:36.834Z,64.75
2022-08-26T01:37:42.716Z,64.86
2022-08-26T01:42:49.248Z,65.48
2022-08-26T01:47:56.907Z,65.71
2022-08-26T01:53:05.990Z,65.29
2022-08-26T01:58:15.014Z,65.68
2022-08-26T02:03:21.771Z,66.23
2022-08-26T02:08:29.546Z,66.34
2022-08-26T02:13:39.631Z,66.97
2022-08-26T02:18:45.154Z,66.86
2022-08-26T02:23:52.175Z,66.39
2022-08-26T02:29:01.342Z,66.85
2022-08-26T02:34:11.774Z,66.63
2022-08-26T02:39:19.558Z,64.84
2022-08-26T02:44:27.562Z,64.73
2022-08-26T02:49:31.032Z,64.67
2022-08-26T02:54:34.391Z,64.64
2022-08-26T02:59:40.132Z,64.37
2022-08-26T03:04:58.074Z,65.01
2022-08-26T03:10:08.799Z,64.52
2022-08-26T03:15:17.883Z,64.79
2022-08-26T03:20:21.562Z,65.18
2022-08-26T03:25:26.313Z,65.10
2022-08-26T03:30:45.768Z,64.99
2022-08-26T03:35:50.602Z,64.89
2022-08-26T03:40:54.372Z,64.37
2022-08-26T03:45:59.227Z,64.40
2022-08-26T03:51:03.259Z,63.71
2022-08-26T03:56:07.940Z,62.70
2022-08-26T04:01:13.678Z,62.22
2022-08-26T04:06:19.945Z,62.85
2022-08-26T04:11:26.885Z,63.55
2022-08-26T04:16:32.549Z,64.23
2022-08-26T04:21:38.367Z,64.07
2022-08-26T04:26:43.879Z,63.66
2022-08-26T04:31:49.356Z,63.62
2022-08-26T04:36:53.284Z,63.44
2022-08-26T04:41:57.826Z,63.88
2022-08-26T04:47:03.493Z,63.92
2022-08-26T04:52:07.214Z,64.03
2022-08-26T04:57:11.225Z,63.83
2022-08-26T05:02:16.112Z,63.79
2022-08-26T05:07:19.621Z,63.90
2022-08-26T05:12:23.405Z,63.54
2022-08-26T05:17:28.805Z,62.67
2022-08-26T05:22:32.364Z,62.25
2022-08-26T05:27:35.772Z,61.40
2022-08-26T05:32:42.013Z,61.38
2022-08-26T05:37:45.592Z,60.71
2022-08-26T05:42:49.050Z,60.34
2022-08-26T05:47:54.188Z,60.59
2022-08-26T05:52:59.218Z,58.06
2022-08-26T05:58:02.876Z,56.91
2022-08-26T06:03:08.474Z,57.13
2022-08-26T06:08:15.262Z,55.92
2022-08-26T06:13:25.660Z,55.75
2022-08-26T06:18:35.512Z,55.82
2022-08-26T06:23:56.530Z,55.84
2022-08-26T06:29:00.205Z,56.23
2022-08-26T06:34:10.761Z,54.39
2022-08-26T06:39:17.115Z,54.21
2022-08-26T06:44:21.570Z,53.42
2022-08-26T06:49:27.785Z,52.27
2022-08-26T06:54:31.952Z,51.92
2022-08-26T06:59:35.490Z,50.58
2022-08-26T07:04:40.967Z,50.09
2022-08-26T07:09:45.965Z,49.18
2022-08-26T07:14:50.675Z,51.19
2022-08-26T07:19:55.661Z,50.10
2022-08-26T07:24:59.156Z,48.99
2022-08-26T07:30:03.117Z,48.65
2022-08-26T07:35:09.762Z,47.54
2022-08-26T07:40:13.330Z,45.83
2022-08-26T07:45:21.313Z,45.88
2022-08-26T07:50:49.355Z,45.79
2022-08-26T07:55:51.620Z,45.65
2022-08-26T08:00:55.632Z,45.62
2022-08-26T08:06:01.314Z,45.99
2022-08-26T08:11:04.911Z,44.84
2022-08-26T08:16:12.526Z,45.54
2022-08-26T08:21:21.842Z,46.35
2022-08-26T08:26:27.640Z,46.99
2022-08-26T08:36:59.738Z,47.07
2022-08-26T08:42:38.111Z,47.28
2022-08-26T08:47:45.799Z,47.41
2022-08-26T08:52:57.106Z,46.81
2022-08-26T08:58:05.166Z,47.06
2022-08-26T09:03:17.098Z,47.40
2022-08-26T09:08:28.402Z,46.63
2022-08-26T09:13:32.048Z,46.96
2022-08-26T09:18:56.511Z,46.56
2022-08-26T09:24:01.693Z,48.32
2022-08-26T09:29:08.895Z,47.53
2022-08-26T09:34:18.066Z,47.41
2022-08-26T09:39:38.042Z,48.03
2022-08-26T09:44:56.771Z,50.25
2022-08-26T09:50:09.526Z,47.76
2022-08-26T09:55:22.966Z,48.27
2022-08-26T10:00:32.873Z,48.09
2022-08-26T10:05:46.464Z,48.71
2022-08-26T10:10:53.082Z,48.47
2022-08-26T10:16:15.961Z,48.55
2022-08-26T10:21:23.945Z,50.18
2022-08-26T10:26:36.848Z,48.14
2022-08-26T10:31:43.189Z,47.66
2022-08-26T10:37:14.568Z,47.95
2022-08-26T10:42:29.217Z,47.15
2022-08-26T10:47:39.684Z,47.80
2022-08-26T10:52:59.185Z,48.61
2022-08-26T10:58:26.143Z,48.35
2022-08-26T11:03:40.200Z,47.60
2022-08-26T11:08:47.953Z,48.18
2022-08-26T11:14:04.629Z,48.00
2022-08-26T11:19:09.901Z,47.19
2022-08-26T11:24:42.623Z,47.96
2022-08-26T11:30:02.689Z,47.84
2022-08-26T11:35:08.080Z,48.21
2022-08-26T11:40:15.387Z,48.84
2022-08-26T11:45:25.468Z,48.13
2022-08-26T11:50:30.101Z,47.75
2022-08-26T11:55:35.081Z,48.73
2022-08-26T12:00:52.449Z,47.64
2022-08-26T12:05:57.389Z,47.26
2022-08-26T12:11:07.046Z,46.91
2022-08-26T12:16:12.404Z,46.89
2022-08-26T12:21:24.304Z,46.18
2022-08-26T12:26:30.509Z,46.36
2022-08-26T12:31:37.484Z,46.13
2022-08-26T12:36:46.748Z,46.01
2022-08-26T12:41:52.722Z,47.76
2022-08-26T12:47:03.836Z,47.02
2022-08-26T12:52:09.115Z,46.58
2022-08-26T12:57:13.310Z,47.66
2022-08-26T13:02:39.912Z,47.82
2022-08-26T13:07:44.461Z,47.10
2022-08-26T13:12:48.242Z,47.52
2022-08-26T13:17:53.414Z,49.93
2022-08-26T13:22:59.396Z,49.04
2022-08-26T13:28:02.964Z,49.31
2022-08-26T13:33:08.807Z,48.56
2022-08-26T13:38:22.361Z,47.80
2022-08-26T13:43:37.227Z,47.74
2022-08-26T13:48:42.026Z,47.65
2022-08-26T13:53:48.552Z,47.30
2022-08-26T13:58:52.263Z,47.59
2022-08-26T14:03:57.235Z,47.75
2022-08-26T14:09:00.798Z,48.28
2022-08-26T14:14:04.245Z,47.31
2022-08-26T14:19:10.980Z,47.85
2022-08-26T14:24:14.424Z,48.53
2022-08-26T14:29:17.913Z,48.65
2022-08-26T14:34:22.777Z,48.66
2022-08-26T14:39:26.486Z,48.40
2022-08-26T14:44:32.668Z,48.52
2022-08-26T14:49:37.756Z,48.45
2022-08-26T14:54:41.250Z,49.17
2022-08-26T14:59:50.164Z,49.23
2022-08-26T15:04:55.177Z,48.74
2022-08-26T15:09:58.612Z,48.16
2022-08-26T15:15:02.132Z,48.22
2022-08-26T15:20:10.266Z,48.55
2022-08-26T15:25:13.861Z,48.52
2022-08-26T15:30:18.388Z,48.35
2022-08-26T15:35:23.588Z,49.78
2022-08-26T15:40:27.906Z,49.84
2022-08-26T15:45:33.886Z,51.01
2022-08-26T15:50:49.871Z,51.82
2022-08-26T15:55:56.312Z,52.41
2022-08-26T16:01:00.194Z,52.95
2022-08-26T16:06:05.329Z,53.62
2022-08-26T16:11:09.361Z,54.81
2022-08-26T16:16:13.641Z,55.27
2022-08-26T16:21:20.938Z,55.90
2022-08-26T16:26:27.567Z,55.98
2022-08-26T16:31:31.201Z,55.51
2022-08-26T16:36:36.522Z,57.25
2022-08-26T16:41:40.248Z,58.66
2022-08-26T16:46:43.767Z,59.84
2022-08-26T16:51:48.588Z,59.77
2022-08-26T16:56:52.031Z,59.66
2022-08-26T17:01:56.090Z,58.47
2022-08-26T17:07:01.350Z,58.86
2022-08-26T17:12:05.438Z,60.22
2022-08-26T17:17:09.237Z,60.87
2022-08-26T17:22:14.523Z,61.88
2022-08-26T17:27:17.987Z,62.58
2022-08-26T17:32:21.474Z,63.03
2022-08-26T17:37:26.381Z,63.49
2022-08-26T17:42:31.501Z,64.28
2022-08-26T17:47:35.919Z,63.99
2022-08-26T17:52:42.651Z,64.02
2022-08-26T17:57:53.539Z,64.98
2022-08-26T18:02:58.740Z,65.88
2022-08-26T18:08:03.887Z,65.38
2022-08-26T18:13:07.285Z,66.02
2022-08-26T18:18:11.173Z,67.80
2022-08-26T18:23:16.031Z,68.76
2022-08-26T18:28:19.730Z,69.16
2022-08-26T18:33:23.234Z,69.87
2022-08-26T18:38:28.457Z,73.05
2022-08-26T18:43:31.899Z,73.12
2022-08-26T18:48:36.820Z,74.81
2022-08-26T18:53:42.123Z,75.81
2022-08-26T18:58:45.811Z,75.72
2022-08-26T19:03:51.331Z,75.75
2022-08-26T19:08:58.199Z,76.08
2022-08-26T19:14:03.128Z,76.98
2022-08-26T19:19:07.537Z,76.96
2022-08-26T19:24:15.695Z,77.25
2022-08-26T19:29:19.239Z,75.39
2022-08-26T19:34:22.738Z,75.02
2022-08-26T19:39:28.146Z,74.40
2022-08-26T19:44:49.154Z,75.07
2022-08-26T19:49:55.481Z,75.36
2022-08-26T19:55:01.608Z,75.40
2022-08-26T20:00:10.427Z,76.55
2022-08-26T20:05:15.118Z,76.34
2022-08-26T20:10:22.658Z,75.98
2022-08-26T20:15:26.438Z,75.96
2022-08-26T20:20:49.226Z,76.50
2022-08-26T20:25:57.563Z,77.17
2022-08-26T20:31:02.121Z,77.00
2022-08-26T20:36:07.306Z,77.34
2022-08-26T20:41:12.516Z,78.32
2022-08-26T20:46:21.999Z,77.92
2022-08-26T20:51:28.260Z,77.89
2022-08-26T20:56:33.148Z,77.38
2022-08-26T21:01:42.028Z,76.68
2022-08-26T21:06:52.323Z,76.31
2022-08-26T21:11:57.811Z,75.88
2022-08-26T21:17:01.292Z,75.48
2022-08-26T21:22:05.561Z,74.92
2022-08-26T21:27:10.670Z,75.33
2022-08-26T21:32:15.759Z,73.60
2022-08-26T21:37:19.319Z,71.76
2022-08-26T21:42:25.416Z,71.11
2022-08-26T21:47:29.190Z,71.33
2022-08-26T21:52:32.901Z,71.32
2022-08-26T21:57:37.786Z,71.68
2022-08-26T22:02:41.398Z,71.19
2022-08-26T22:07:44.980Z,71.98
2022-08-26T22:12:49.839Z,72.76
2022-08-26T22:17:53.379Z,73.57
2022-08-26T22:22:57.146Z,73.45
2022-08-26T22:28:02.042Z,74.39
2022-08-26T22:33:07.289Z,74.83
2022-08-26T22:38:11.194Z,74.91
2022-08-26T22:43:16.545Z,74.78
2022-08-26T22:48:22.110Z,74.16
2022-08-26T22:53:25.919Z,74.51
2022-08-26T22:58:31.107Z,74.42
2022-08-26T23:03:35.510Z,74.57
2022-08-26T23:08:39.769Z,74.11
2022-08-26T23:13:44.945Z,73.96
2022-08-26T23:18:48.418Z,73.61
2022-08-26T23:23:52.101Z,74.40
2022-08-26T23:28:57.335Z,75.10
2022-08-26T23:34:18.378Z,75.30
2022-08-26T23:39:22.373Z,75.26
2022-08-26T23:44:27.198Z,74.96
2022-08-26T23:49:30.690Z,74.86
2022-08-26T23:54:34.547Z,75.18
2022-08-26T23:59:40.320Z,75.46
